sensor_id;sensor_type;location;lat;lon;timestamp;pressure;altitude;pressure_sealevel;temperature;humidity
72465;BME280;60471;52.150;4.508;2024-02-23T00:01:53;98352.59;;;7.17;100.00
72465;BME280;60471;52.150;4.508;2024-02-23T00:04:19;98348.44;;;7.26;100.00
72465;BME280;60471;52.150;4.508;2024-02-23T00:06:45;98373.81;;;7.25;100.00
72465;BME280;60471;52.150;4.508;2024-02-23T00:09:12;98393.97;;;7.25;100.00
72465;BME280;60471;52.150;4.508;2024-02-23T00:11:41;98355.50;;;7.37;100.00
72465;BME280;60471;52.150;4.508;2024-02-23T00:14:11;98360.16;;;7.33;100.00
72465;BME280;60471;52.150;4.508;2024-02-23T00:16:39;98349.38;;;7.25;100.00
72465;BME280;60471;52.150;4.508;2024-02-23T00:19:09;98384.44;;;7.24;100.00
72465;BME280;60471;52.150;4.508;2024-02-23T00:21:36;98372.66;;;7.30;100.00
72465;BME280;60471;52.150;4.508;2024-02-23T00:24:04;98393.13;;;7.24;100.00
72465;BME280;60471;52.150;4.508;2024-02-23T00:26:31;98385.66;;;7.31;100.00
72465;BME280;60471;52.150;4.508;2024-02-23T00:28:57;98426.88;;;7.18;100.00
72465;BME280;60471;52.150;4.508;2024-02-23T00:31:23;98396.66;;;7.36;100.00
72465;BME280;60471;52.150;4.508;2024-02-23T00:33:50;98388.06;;;7.34;100.00
72465;BME280;60471;52.150;4.508;2024-02-23T00:36:16;98384.28;;;7.38;100.00
72465;BME280;60471;52.150;4.508;2024-02-23T00:38:42;98396.31;;;7.41;100.00
72465;BME280;60471;52.150;4.508;2024-02-23T00:41:09;98377.13;;;7.40;100.00
72465;BME280;60471;52.150;4.508;2024-02-23T00:43:41;98390.13;;;7.42;100.00
72465;BME280;60471;52.150;4.508;2024-02-23T00:46:08;98394.13;;;7.35;100.00
72465;BME280;60471;52.150;4.508;2024-02-23T00:48:34;98442.53;;;7.31;100.00
72465;BME280;60471;52.150;4.508;2024-02-23T00:51:04;98392.22;;;7.37;100.00
72465;BME280;60471;52.150;4.508;2024-02-23T00:53:31;98381.84;;;7.35;100.00
72465;BME280;60471;52.150;4.508;2024-02-23T00:55:58;98445.81;;;7.45;100.00
72465;BME280;60471;52.150;4.508;2024-02-23T00:58:24;98423.75;;;7.48;100.00
72465;BME280;60471;52.150;4.508;2024-02-23T01:00:50;98411.72;;;7.45;100.00
72465;BME280;60471;52.150;4.508;2024-02-23T01:03:17;98403.06;;;7.32;100.00
72465;BME280;60471;52.150;4.508;2024-02-23T01:05:43;98410.44;;;7.27;100.00
72465;BME280;60471;52.150;4.508;2024-02-23T01:08:09;98398.44;;;7.36;100.00
72465;BME280;60471;52.150;4.508;2024-02-23T01:10:35;98461.34;;;7.24;100.00
72465;BME280;60471;52.150;4.508;2024-02-23T01:13:01;98438.13;;;7.31;100.00
72465;BME280;60471;52.150;4.508;2024-02-23T01:15:28;98425.28;;;7.39;100.00
72465;BME280;60471;52.150;4.508;2024-02-23T01:17:54;98429.00;;;7.48;100.00
72465;BME280;60471;52.150;4.508;2024-02-23T01:20:22;98450.41;;;7.31;100.00
72465;BME280;60471;52.150;4.508;2024-02-23T01:22:48;98439.09;;;7.30;100.00
72465;BME280;60471;52.150;4.508;2024-02-23T01:25:14;98437.78;;;7.36;100.00
72465;BME280;60471;52.150;4.508;2024-02-23T01:27:41;98450.53;;;7.29;100.00
72465;BME280;60471;52.150;4.508;2024-02-23T01:30:08;98475.16;;;7.39;100.00
72465;BME280;60471;52.150;4.508;2024-02-23T01:32:34;98466.13;;;7.54;100.00
72465;BME280;60471;52.150;4.508;2024-02-23T01:35:03;98468.72;;;7.43;100.00
72465;BME280;60471;52.150;4.508;2024-02-23T01:37:34;98487.81;;;7.45;100.00
72465;BME280;60471;52.150;4.508;2024-02-23T01:40:00;98493.56;;;7.50;100.00
72465;BME280;60471;52.150;4.508;2024-02-23T01:42:26;98594.81;;;7.16;100.00
72465;BME280;60471;52.150;4.508;2024-02-23T01:44:53;98502.19;;;6.41;100.00
72465;BME280;60471;52.150;4.508;2024-02-23T01:47:22;98464.03;;;6.12;100.00
72465;BME280;60471;52.150;4.508;2024-02-23T01:49:51;98471.91;;;6.12;100.00
72465;BME280;60471;52.150;4.508;2024-02-23T01:52:18;98495.78;;;6.20;100.00
72465;BME280;60471;52.150;4.508;2024-02-23T01:54:44;98488.44;;;6.25;100.00
72465;BME280;60471;52.150;4.508;2024-02-23T01:57:11;98488.34;;;6.26;100.00
72465;BME280;60471;52.150;4.508;2024-02-23T01:59:38;98489.91;;;6.29;100.00
72465;BME280;60471;52.150;4.508;2024-02-23T02:02:05;98478.63;;;6.41;100.00
72465;BME280;60471;52.150;4.508;2024-02-23T02:04:31;98492.22;;;6.46;100.00
72465;BME280;60471;52.150;4.508;2024-02-23T02:06:59;98506.88;;;6.49;100.00
72465;BME280;60471;52.150;4.508;2024-02-23T02:09:26;98497.13;;;6.51;100.00
72465;BME280;60471;52.150;4.508;2024-02-23T02:11:53;98508.66;;;6.48;100.00
72465;BME280;60471;52.150;4.508;2024-02-23T02:14:19;98511.94;;;6.52;100.00
72465;BME280;60471;52.150;4.508;2024-02-23T02:16:45;98502.19;;;6.54;100.00
72465;BME280;60471;52.150;4.508;2024-02-23T02:19:14;98473.44;;;6.65;100.00
72465;BME280;60471;52.150;4.508;2024-02-23T02:21:41;98507.63;;;6.63;100.00
72465;BME280;60471;52.150;4.508;2024-02-23T02:24:07;98470.09;;;6.63;100.00
72465;BME280;60471;52.150;4.508;2024-02-23T02:26:34;98494.09;;;6.57;100.00
72465;BME280;60471;52.150;4.508;2024-02-23T02:29:02;98497.34;;;6.60;100.00
72465;BME280;60471;52.150;4.508;2024-02-23T02:31:29;98506.69;;;6.64;100.00
72465;BME280;60471;52.150;4.508;2024-02-23T02:33:56;98489.91;;;6.67;100.00
72465;BME280;60471;52.150;4.508;2024-02-23T02:36:22;98490.31;;;6.74;100.00
72465;BME280;60471;52.150;4.508;2024-02-23T02:38:48;98510.53;;;6.72;100.00
72465;BME280;60471;52.150;4.508;2024-02-23T02:41:16;98523.66;;;6.84;100.00
72465;BME280;60471;52.150;4.508;2024-02-23T02:43:44;98502.25;;;6.78;100.00
72465;BME280;60471;52.150;4.508;2024-02-23T02:46:10;98499.50;;;6.92;100.00
72465;BME280;60471;52.150;4.508;2024-02-23T02:48:36;98497.75;;;6.80;100.00
72465;BME280;60471;52.150;4.508;2024-02-23T02:51:03;98538.34;;;6.74;100.00
72465;BME280;60471;52.150;4.508;2024-02-23T02:53:29;98515.38;;;6.78;100.00
72465;BME280;60471;52.150;4.508;2024-02-23T02:55:56;98503.72;;;6.82;100.00
72465;BME280;60471;52.150;4.508;2024-02-23T02:58:22;98505.19;;;6.86;100.00
72465;BME280;60471;52.150;4.508;2024-02-23T03:00:48;98498.78;;;6.90;100.00
72465;BME280;60471;52.150;4.508;2024-02-23T03:03:14;98529.16;;;6.92;100.00
72465;BME280;60471;52.150;4.508;2024-02-23T03:05:41;98513.66;;;6.89;100.00
72465;BME280;60471;52.150;4.508;2024-02-23T03:08:07;98500.03;;;6.97;100.00
72465;BME280;60471;52.150;4.508;2024-02-23T03:10:33;98509.59;;;6.85;100.00
72465;BME280;60471;52.150;4.508;2024-02-23T03:12:59;98511.88;;;6.90;100.00
72465;BME280;60471;52.150;4.508;2024-02-23T03:15:25;98511.13;;;7.01;100.00
72465;BME280;60471;52.150;4.508;2024-02-23T03:17:52;98492.34;;;6.94;100.00
72465;BME280;60471;52.150;4.508;2024-02-23T03:20:20;98501.50;;;6.88;100.00
72465;BME280;60471;52.150;4.508;2024-02-23T03:22:46;98510.72;;;6.94;100.00
72465;BME280;60471;52.150;4.508;2024-02-23T03:25:12;98511.13;;;7.01;100.00
72465;BME280;60471;52.150;4.508;2024-02-23T03:27:39;98511.34;;;6.97;100.00
72465;BME280;60471;52.150;4.508;2024-02-23T03:30:05;98524.13;;;7.02;100.00
72465;BME280;60471;52.150;4.508;2024-02-23T03:32:34;98536.19;;;6.92;100.00
72465;BME280;60471;52.150;4.508;2024-02-23T03:35:05;98520.00;;;6.74;100.00
72465;BME280;60471;52.150;4.508;2024-02-23T03:37:34;98521.56;;;6.51;100.00
72465;BME280;60471;52.150;4.508;2024-02-23T03:40:00;98532.06;;;6.51;100.00
72465;BME280;60471;52.150;4.508;2024-02-23T03:42:26;98560.66;;;6.42;100.00
72465;BME280;60471;52.150;4.508;2024-02-23T03:44:53;98526.06;;;6.49;100.00
72465;BME280;60471;52.150;4.508;2024-02-23T03:47:20;98521.66;;;6.50;100.00
72465;BME280;60471;52.150;4.508;2024-02-23T03:49:46;98543.16;;;6.42;100.00
72465;BME280;60471;52.150;4.508;2024-02-23T03:52:12;98573.19;;;6.24;100.00
72465;BME280;60471;52.150;4.508;2024-02-23T03:54:39;98549.72;;;6.22;100.00
72465;BME280;60471;52.150;4.508;2024-02-23T03:57:05;98523.53;;;6.22;100.00
72465;BME280;60471;52.150;4.508;2024-02-23T03:59:31;98549.28;;;6.16;100.00
72465;BME280;60471;52.150;4.508;2024-02-23T04:01:57;98546.03;;;6.12;100.00
72465;BME280;60471;52.150;4.508;2024-02-23T04:04:23;98527.50;;;6.15;100.00
72465;BME280;60471;52.150;4.508;2024-02-23T04:06:50;98525.59;;;6.04;100.00
72465;BME280;60471;52.150;4.508;2024-02-23T04:09:16;98544.53;;;5.95;100.00
72465;BME280;60471;52.150;4.508;2024-02-23T04:11:42;98566.41;;;5.94;100.00
72465;BME280;60471;52.150;4.508;2024-02-23T04:14:08;98530.69;;;5.93;100.00
72465;BME280;60471;52.150;4.508;2024-02-23T04:16:34;98534.81;;;5.83;100.00
72465;BME280;60471;52.150;4.508;2024-02-23T04:19:01;98545.81;;;5.75;100.00
72465;BME280;60471;52.150;4.508;2024-02-23T04:21:27;98550.94;;;5.77;100.00
72465;BME280;60471;52.150;4.508;2024-02-23T04:23:53;98533.25;;;5.80;100.00
72465;BME280;60471;52.150;4.508;2024-02-23T04:26:19;98563.09;;;5.78;100.00
72465;BME280;60471;52.150;4.508;2024-02-23T04:28:45;98573.00;;;5.73;100.00
72465;BME280;60471;52.150;4.508;2024-02-23T04:31:12;98529.16;;;5.76;100.00
72465;BME280;60471;52.150;4.508;2024-02-23T04:33:38;98571.88;;;5.77;100.00
72465;BME280;60471;52.150;4.508;2024-02-23T04:36:05;98561.72;;;5.85;100.00
72465;BME280;60471;52.150;4.508;2024-02-23T04:38:32;98582.38;;;5.90;100.00
72465;BME280;60471;52.150;4.508;2024-02-23T04:41:03;98558.53;;;5.94;100.00
72465;BME280;60471;52.150;4.508;2024-02-23T04:43:30;98551.78;;;6.04;100.00
72465;BME280;60471;52.150;4.508;2024-02-23T04:45:57;98555.66;;;5.99;100.00
72465;BME280;60471;52.150;4.508;2024-02-23T04:48:23;98570.19;;;6.03;100.00
72465;BME280;60471;52.150;4.508;2024-02-23T04:50:50;98563.63;;;6.10;100.00
72465;BME280;60471;52.150;4.508;2024-02-23T04:53:16;98578.69;;;6.06;100.00
72465;BME280;60471;52.150;4.508;2024-02-23T04:55:42;98634.25;;;5.83;100.00
72465;BME280;60471;52.150;4.508;2024-02-23T04:58:09;98568.50;;;5.75;100.00
72465;BME280;60471;52.150;4.508;2024-02-23T05:00:35;98553.41;;;5.66;100.00
72465;BME280;60471;52.150;4.508;2024-02-23T05:03:01;98581.72;;;5.59;100.00
72465;BME280;60471;52.150;4.508;2024-02-23T05:05:32;98549.19;;;5.63;100.00
72465;BME280;60471;52.150;4.508;2024-02-23T05:07:58;98568.28;;;5.65;100.00
72465;BME280;60471;52.150;4.508;2024-02-23T05:10:25;98552.38;;;5.68;100.00
72465;BME280;60471;52.150;4.508;2024-02-23T05:12:51;98561.59;;;5.74;100.00
72465;BME280;60471;52.150;4.508;2024-02-23T05:15:17;98600.19;;;5.70;100.00
72465;BME280;60471;52.150;4.508;2024-02-23T05:17:44;98588.44;;;5.63;100.00
72465;BME280;60471;52.150;4.508;2024-02-23T05:20:11;98587.50;;;5.64;100.00
72465;BME280;60471;52.150;4.508;2024-02-23T05:22:38;98563.94;;;5.64;100.00
72465;BME280;60471;52.150;4.508;2024-02-23T05:25:06;98549.75;;;5.68;100.00
72465;BME280;60471;52.150;4.508;2024-02-23T05:27:33;98542.84;;;5.67;100.00
72465;BME280;60471;52.150;4.508;2024-02-23T05:29:59;98537.41;;;5.70;100.00
72465;BME280;60471;52.150;4.508;2024-02-23T05:32:25;98540.22;;;5.67;100.00
72465;BME280;60471;52.150;4.508;2024-02-23T05:34:52;98555.41;;;5.75;100.00
72465;BME280;60471;52.150;4.508;2024-02-23T05:37:19;98525.56;;;5.92;100.00
72465;BME280;60471;52.150;4.508;2024-02-23T05:39:46;98536.97;;;5.91;100.00
72465;BME280;60471;52.150;4.508;2024-02-23T05:42:12;98547.72;;;5.86;100.00
72465;BME280;60471;52.150;4.508;2024-02-23T05:44:39;98522.00;;;5.93;100.00
72465;BME280;60471;52.150;4.508;2024-02-23T05:47:05;98540.34;;;5.93;100.00
72465;BME280;60471;52.150;4.508;2024-02-23T05:49:32;98544.72;;;5.92;100.00
72465;BME280;60471;52.150;4.508;2024-02-23T05:51:58;98545.81;;;6.02;100.00
72465;BME280;60471;52.150;4.508;2024-02-23T05:54:24;98525.38;;;6.07;100.00
72465;BME280;60471;52.150;4.508;2024-02-23T05:56:50;98535.34;;;6.15;100.00
72465;BME280;60471;52.150;4.508;2024-02-23T05:59:17;98514.06;;;6.07;100.00
72465;BME280;60471;52.150;4.508;2024-02-23T06:01:43;98527.59;;;6.14;100.00
72465;BME280;60471;52.150;4.508;2024-02-23T06:04:09;98540.25;;;6.07;100.00
72465;BME280;60471;52.150;4.508;2024-02-23T06:06:36;98539.34;;;6.08;100.00
72465;BME280;60471;52.150;4.508;2024-02-23T06:09:02;98524.59;;;6.20;100.00
72465;BME280;60471;52.150;4.508;2024-02-23T06:11:29;98536.19;;;6.16;100.00
72465;BME280;60471;52.150;4.508;2024-02-23T06:13:55;98543.09;;;6.17;100.00
72465;BME280;60471;52.150;4.508;2024-02-23T06:16:22;98533.59;;;6.28;100.00
72465;BME280;60471;52.150;4.508;2024-02-23T06:18:48;98521.03;;;6.33;100.00
72465;BME280;60471;52.150;4.508;2024-02-23T06:21:17;98529.50;;;6.37;100.00
72465;BME280;60471;52.150;4.508;2024-02-23T06:23:44;98535.25;;;6.29;100.00
72465;BME280;60471;52.150;4.508;2024-02-23T06:26:10;98538.75;;;6.30;100.00
72465;BME280;60471;52.150;4.508;2024-02-23T06:28:37;98525.22;;;6.36;100.00
72465;BME280;60471;52.150;4.508;2024-02-23T06:31:07;98513.78;;;6.37;100.00
72465;BME280;60471;52.150;4.508;2024-02-23T06:33:34;98529.41;;;6.38;100.00
72465;BME280;60471;52.150;4.508;2024-02-23T06:36:00;98523.03;;;6.43;100.00
72465;BME280;60471;52.150;4.508;2024-02-23T06:38:27;98517.56;;;6.46;100.00
72465;BME280;60471;52.150;4.508;2024-02-23T06:40:53;98534.25;;;6.45;100.00
72465;BME280;60471;52.150;4.508;2024-02-23T06:43:21;98506.78;;;6.50;100.00
72465;BME280;60471;52.150;4.508;2024-02-23T06:45:47;98539.03;;;6.38;100.00
72465;BME280;60471;52.150;4.508;2024-02-23T06:48:13;98532.44;;;6.32;100.00
72465;BME280;60471;52.150;4.508;2024-02-23T06:50:40;98578.41;;;6.24;100.00
72465;BME280;60471;52.150;4.508;2024-02-23T06:53:06;98523.31;;;6.38;100.00
72465;BME280;60471;52.150;4.508;2024-02-23T06:55:34;98533.50;;;6.43;100.00
72465;BME280;60471;52.150;4.508;2024-02-23T06:58:01;98535.59;;;6.37;100.00
72465;BME280;60471;52.150;4.508;2024-02-23T07:00:27;98576.97;;;6.32;100.00
72465;BME280;60471;52.150;4.508;2024-02-23T07:02:54;98572.78;;;6.30;100.00
72465;BME280;60471;52.150;4.508;2024-02-23T07:05:20;98527.09;;;6.34;100.00
72465;BME280;60471;52.150;4.508;2024-02-23T07:07:46;98559.16;;;6.37;100.00
72465;BME280;60471;52.150;4.508;2024-02-23T07:10:12;98522.50;;;6.25;100.00
72465;BME280;60471;52.150;4.508;2024-02-23T07:12:39;98553.59;;;6.29;100.00
72465;BME280;60471;52.150;4.508;2024-02-23T07:15:05;98547.63;;;6.27;100.00
72465;BME280;60471;52.150;4.508;2024-02-23T07:17:32;98512.00;;;6.25;100.00
72465;BME280;60471;52.150;4.508;2024-02-23T07:19:58;98519.13;;;6.23;100.00
72465;BME280;60471;52.150;4.508;2024-02-23T07:22:34;98515.06;;;6.19;100.00
72465;BME280;60471;52.150;4.508;2024-02-23T07:25:00;98539.28;;;5.95;100.00
72465;BME280;60471;52.150;4.508;2024-02-23T07:27:30;98537.44;;;5.83;100.00
72465;BME280;60471;52.150;4.508;2024-02-23T07:29:57;98539.19;;;5.70;100.00
72465;BME280;60471;52.150;4.508;2024-02-23T07:32:23;98519.34;;;5.80;100.00
72465;BME280;60471;52.150;4.508;2024-02-23T07:34:50;98543.81;;;5.79;100.00
72465;BME280;60471;52.150;4.508;2024-02-23T07:37:16;98529.69;;;5.81;100.00
72465;BME280;60471;52.150;4.508;2024-02-23T07:39:42;98517.88;;;5.76;100.00
72465;BME280;60471;52.150;4.508;2024-02-23T07:42:08;98535.72;;;5.69;100.00
72465;BME280;60471;52.150;4.508;2024-02-23T07:44:36;98524.63;;;5.66;100.00
72465;BME280;60471;52.150;4.508;2024-02-23T07:47:03;98495.16;;;5.49;100.00
72465;BME280;60471;52.150;4.508;2024-02-23T07:49:32;98529.66;;;5.42;100.00
72465;BME280;60471;52.150;4.508;2024-02-23T07:51:58;98551.28;;;5.17;100.00
72465;BME280;60471;52.150;4.508;2024-02-23T07:54:25;98548.22;;;5.10;100.00
72465;BME280;60471;52.150;4.508;2024-02-23T07:56:51;98508.91;;;4.98;100.00
72465;BME280;60471;52.150;4.508;2024-02-23T07:59:17;98555.69;;;4.88;100.00
72465;BME280;60471;52.150;4.508;2024-02-23T08:01:43;98535.44;;;4.91;100.00
72465;BME280;60471;52.150;4.508;2024-02-23T08:04:10;98517.25;;;4.90;100.00
72465;BME280;60471;52.150;4.508;2024-02-23T08:06:36;98529.56;;;4.88;100.00
72465;BME280;60471;52.150;4.508;2024-02-23T08:09:02;98537.13;;;4.92;100.00
72465;BME280;60471;52.150;4.508;2024-02-23T08:11:28;98499.56;;;5.08;100.00
72465;BME280;60471;52.150;4.508;2024-02-23T08:13:54;98518.53;;;5.11;100.00
72465;BME280;60471;52.150;4.508;2024-02-23T08:16:21;98493.97;;;5.14;100.00
72465;BME280;60471;52.150;4.508;2024-02-23T08:18:47;98509.56;;;5.15;100.00
72465;BME280;60471;52.150;4.508;2024-02-23T08:21:13;98555.56;;;5.18;100.00
72465;BME280;60471;52.150;4.508;2024-02-23T08:23:39;98505.69;;;5.35;100.00
72465;BME280;60471;52.150;4.508;2024-02-23T08:26:06;98496.63;;;5.27;100.00
72465;BME280;60471;52.150;4.508;2024-02-23T08:28:32;98494.75;;;5.29;100.00
72465;BME280;60471;52.150;4.508;2024-02-23T08:30:58;98510.84;;;5.22;100.00
72465;BME280;60471;52.150;4.508;2024-02-23T08:33:25;98495.69;;;5.28;100.00
72465;BME280;60471;52.150;4.508;2024-02-23T08:35:51;98535.22;;;5.23;100.00
72465;BME280;60471;52.150;4.508;2024-02-23T08:38:17;98495.41;;;5.32;100.00
72465;BME280;60471;52.150;4.508;2024-02-23T08:40:44;98529.41;;;5.32;100.00
72465;BME280;60471;52.150;4.508;2024-02-23T08:43:11;98521.22;;;5.24;100.00
72465;BME280;60471;52.150;4.508;2024-02-23T08:45:37;98583.47;;;5.17;100.00
72465;BME280;60471;52.150;4.508;2024-02-23T08:48:03;98546.03;;;5.17;100.00
72465;BME280;60471;52.150;4.508;2024-02-23T08:50:30;98543.00;;;5.10;100.00
72465;BME280;60471;52.150;4.508;2024-02-23T08:52:56;98499.63;;;5.20;100.00
72465;BME280;60471;52.150;4.508;2024-02-23T08:55:22;98501.72;;;5.15;100.00
72465;BME280;60471;52.150;4.508;2024-02-23T08:57:49;98487.44;;;5.21;100.00
72465;BME280;60471;52.150;4.508;2024-02-23T09:00:16;98489.84;;;5.24;100.00
72465;BME280;60471;52.150;4.508;2024-02-23T09:02:42;98494.47;;;5.33;100.00
72465;BME280;60471;52.150;4.508;2024-02-23T09:05:09;98500.88;;;5.42;100.00
72465;BME280;60471;52.150;4.508;2024-02-23T09:07:35;98507.50;;;5.47;100.00
72465;BME280;60471;52.150;4.508;2024-02-23T09:10:02;98532.19;;;5.43;100.00
72465;BME280;60471;52.150;4.508;2024-02-23T09:12:30;98522.56;;;5.44;100.00
72465;BME280;60471;52.150;4.508;2024-02-23T09:14:57;98538.16;;;5.45;100.00
72465;BME280;60471;52.150;4.508;2024-02-23T09:17:23;98531.56;;;5.52;100.00
72465;BME280;60471;52.150;4.508;2024-02-23T09:19:49;98536.88;;;5.65;100.00
72465;BME280;60471;52.150;4.508;2024-02-23T09:22:15;98520.91;;;5.82;100.00
72465;BME280;60471;52.150;4.508;2024-02-23T09:24:42;98493.78;;;5.98;100.00
72465;BME280;60471;52.150;4.508;2024-02-23T09:27:08;98531.09;;;5.87;100.00
72465;BME280;60471;52.150;4.508;2024-02-23T09:29:35;98491.34;;;5.95;100.00
72465;BME280;60471;52.150;4.508;2024-02-23T09:32:01;98495.69;;;5.81;100.00
72465;BME280;60471;52.150;4.508;2024-02-23T09:34:27;98492.63;;;6.02;100.00
72465;BME280;60471;52.150;4.508;2024-02-23T09:36:55;98524.53;;;6.07;100.00
72465;BME280;60471;52.150;4.508;2024-02-23T09:39:21;98514.00;;;6.08;100.00
72465;BME280;60471;52.150;4.508;2024-02-23T09:41:51;98519.84;;;6.12;100.00
72465;BME280;60471;52.150;4.508;2024-02-23T09:44:18;98522.91;;;6.19;100.00
72465;BME280;60471;52.150;4.508;2024-02-23T09:46:46;98480.81;;;6.22;100.00
72465;BME280;60471;52.150;4.508;2024-02-23T09:49:14;98498.91;;;6.37;100.00
72465;BME280;60471;52.150;4.508;2024-02-23T09:51:42;98515.69;;;6.35;100.00
72465;BME280;60471;52.150;4.508;2024-02-23T09:54:10;98509.00;;;6.44;100.00
72465;BME280;60471;52.150;4.508;2024-02-23T09:56:36;98540.41;;;6.56;100.00
72465;BME280;60471;52.150;4.508;2024-02-23T09:59:03;98582.97;;;6.73;100.00
72465;BME280;60471;52.150;4.508;2024-02-23T10:01:31;98516.31;;;6.77;100.00
72465;BME280;60471;52.150;4.508;2024-02-23T10:04:00;98577.31;;;6.79;100.00
72465;BME280;60471;52.150;4.508;2024-02-23T10:06:29;98530.78;;;6.95;100.00
72465;BME280;60471;52.150;4.508;2024-02-23T10:08:55;98549.03;;;6.84;100.00
72465;BME280;60471;52.150;4.508;2024-02-23T10:11:22;98535.66;;;7.12;100.00
72465;BME280;60471;52.150;4.508;2024-02-23T10:13:50;98551.19;;;7.52;100.00
72465;BME280;60471;52.150;4.508;2024-02-23T10:16:21;98546.53;;;8.03;100.00
72465;BME280;60471;52.150;4.508;2024-02-23T10:18:48;98562.09;;;7.82;100.00
72465;BME280;60471;52.150;4.508;2024-02-23T10:21:15;98570.03;;;8.75;100.00
72465;BME280;60471;52.150;4.508;2024-02-23T10:23:44;98579.22;;;8.58;100.00
72465;BME280;60471;52.150;4.508;2024-02-23T10:26:11;98592.28;;;8.82;100.00
72465;BME280;60471;52.150;4.508;2024-02-23T10:28:37;98556.03;;;8.17;100.00
72465;BME280;60471;52.150;4.508;2024-02-23T10:31:06;98603.84;;;8.09;100.00
72465;BME280;60471;52.150;4.508;2024-02-23T10:33:34;98582.03;;;7.85;100.00
72465;BME280;60471;52.150;4.508;2024-02-23T10:36:04;98598.25;;;7.66;100.00
72465;BME280;60471;52.150;4.508;2024-02-23T10:38:32;98599.94;;;7.91;100.00
72465;BME280;60471;52.150;4.508;2024-02-23T10:41:05;98567.16;;;7.97;100.00
72465;BME280;60471;52.150;4.508;2024-02-23T10:43:51;98704.50;;;7.73;100.00
72465;BME280;60471;52.150;4.508;2024-02-23T10:46:19;98648.31;;;8.00;100.00
72465;BME280;60471;52.150;4.508;2024-02-23T10:48:48;98606.44;;;7.74;100.00
72465;BME280;60471;52.150;4.508;2024-02-23T10:51:15;98578.72;;;7.94;100.00
72465;BME280;60471;52.150;4.508;2024-02-23T10:53:43;98647.19;;;8.04;100.00
72465;BME280;60471;52.150;4.508;2024-02-23T10:56:12;98633.69;;;7.84;100.00
72465;BME280;60471;52.150;4.508;2024-02-23T10:58:38;98610.47;;;8.15;100.00
72465;BME280;60471;52.150;4.508;2024-02-23T11:01:07;98618.13;;;7.94;100.00
72465;BME280;60471;52.150;4.508;2024-02-23T11:03:36;98596.66;;;8.00;100.00
72465;BME280;60471;52.150;4.508;2024-02-23T11:06:07;98620.22;;;8.13;100.00
72465;BME280;60471;52.150;4.508;2024-02-23T11:08:34;98638.06;;;8.80;100.00
72465;BME280;60471;52.150;4.508;2024-02-23T11:11:09;98655.38;;;8.23;100.00
72465;BME280;60471;52.150;4.508;2024-02-23T11:13:37;98654.41;;;8.00;100.00
72465;BME280;60471;52.150;4.508;2024-02-23T11:16:05;98666.63;;;8.25;100.00
72465;BME280;60471;52.150;4.508;2024-02-23T11:18:38;98646.84;;;9.14;100.00
72465;BME280;60471;52.150;4.508;2024-02-23T11:21:09;98717.03;;;8.78;100.00
72465;BME280;60471;52.150;4.508;2024-02-23T11:23:52;98647.38;;;8.25;100.00
72465;BME280;60471;52.150;4.508;2024-02-23T11:26:22;98633.50;;;8.23;100.00
72465;BME280;60471;52.150;4.508;2024-02-23T11:28:50;98627.38;;;8.35;100.00
72465;BME280;60471;52.150;4.508;2024-02-23T11:31:23;98619.47;;;8.48;100.00
72465;BME280;60471;52.150;4.508;2024-02-23T11:33:52;98649.69;;;8.53;100.00
72465;BME280;60471;52.150;4.508;2024-02-23T11:36:29;98675.91;;;9.91;100.00
72465;BME280;60471;52.150;4.508;2024-02-23T11:38:59;98622.31;;;10.24;100.00
72465;BME280;60471;52.150;4.508;2024-02-23T11:41:27;98653.66;;;9.16;100.00
72465;BME280;60471;52.150;4.508;2024-02-23T11:43:55;98675.69;;;8.69;100.00
72465;BME280;60471;52.150;4.508;2024-02-23T11:46:22;98653.63;;;8.48;100.00
72465;BME280;60471;52.150;4.508;2024-02-23T11:48:48;98701.38;;;8.77;100.00
72465;BME280;60471;52.150;4.508;2024-02-23T11:51:22;98677.47;;;8.68;100.00
72465;BME280;60471;52.150;4.508;2024-02-23T11:53:50;98679.75;;;8.73;100.00
72465;BME280;60471;52.150;4.508;2024-02-23T11:56:16;98658.47;;;9.56;100.00
72465;BME280;60471;52.150;4.508;2024-02-23T11:58:44;98661.97;;;10.22;100.00
72465;BME280;60471;52.150;4.508;2024-02-23T12:01:10;98654.00;;;11.68;100.00
72465;BME280;60471;52.150;4.508;2024-02-23T12:03:37;98631.78;;;10.47;100.00
72465;BME280;60471;52.150;4.508;2024-02-23T12:06:06;98642.03;;;9.75;100.00
72465;BME280;60471;52.150;4.508;2024-02-23T12:08:33;98655.34;;;9.62;100.00
72465;BME280;60471;52.150;4.508;2024-02-23T12:11:05;98664.19;;;9.72;100.00
72465;BME280;60471;52.150;4.508;2024-02-23T12:13:33;98661.44;;;9.40;100.00
72465;BME280;60471;52.150;4.508;2024-02-23T12:15:59;98650.06;;;9.40;100.00
72465;BME280;60471;52.150;4.508;2024-02-23T12:18:25;98686.66;;;9.20;100.00
72465;BME280;60471;52.150;4.508;2024-02-23T12:21:15;98680.91;;;9.04;100.00
72465;BME280;60471;52.150;4.508;2024-02-23T12:23:43;98681.88;;;9.03;100.00
72465;BME280;60471;52.150;4.508;2024-02-23T12:26:13;98677.06;;;9.08;100.00
72465;BME280;60471;52.150;4.508;2024-02-23T12:28:41;98680.56;;;9.20;100.00
72465;BME280;60471;52.150;4.508;2024-02-23T12:31:07;98690.31;;;8.95;100.00
72465;BME280;60471;52.150;4.508;2024-02-23T12:33:35;98677.03;;;8.86;100.00
72465;BME280;60471;52.150;4.508;2024-02-23T12:36:04;98660.72;;;9.27;100.00
72465;BME280;60471;52.150;4.508;2024-02-23T12:38:31;98686.69;;;10.74;100.00
72465;BME280;60471;52.150;4.508;2024-02-23T12:40:59;98678.34;;;10.90;100.00
72465;BME280;60471;52.150;4.508;2024-02-23T12:43:25;98667.66;;;9.73;100.00
72465;BME280;60471;52.150;4.508;2024-02-23T12:45:55;98691.72;;;9.57;100.00
72465;BME280;60471;52.150;4.508;2024-02-23T12:48:23;98670.31;;;11.43;100.00
72465;BME280;60471;52.150;4.508;2024-02-23T12:50:50;98724.41;;;11.27;100.00
72465;BME280;60471;52.150;4.508;2024-02-23T12:53:35;98682.00;;;12.69;100.00
72465;BME280;60471;52.150;4.508;2024-02-23T12:56:07;98663.44;;;14.46;100.00
72465;BME280;60471;52.150;4.508;2024-02-23T12:58:39;98672.59;;;13.42;100.00
72465;BME280;60471;52.150;4.508;2024-02-23T13:01:09;98690.94;;;12.87;100.00